sensor_id;sensor_type;location;lat;lon;timestamp;pressure;altitude;pressure_sealevel;temperature;humidity
20145;BME280;10233;50.814;6.590;2023-04-25T00:00:31;99675.91;;;8.66;100.00
20145;BME280;10233;50.814;6.590;2023-04-25T00:01:32;99677.13;;;8.64;100.00
20145;BME280;10233;50.814;6.590;2023-04-25T00:02:35;99683.03;;;8.59;100.00
20145;BME280;10233;50.814;6.590;2023-04-25T00:03:36;99675.28;;;8.58;100.00
20145;BME280;10233;50.814;6.590;2023-04-25T00:04:38;99677.50;;;8.61;100.00
20145;BME280;10233;50.814;6.590;2023-04-25T00:05:39;99677.31;;;8.62;100.00
20145;BME280;10233;50.814;6.590;2023-04-25T00:06:39;99675.06;;;8.66;100.00
20145;BME280;10233;50.814;6.590;2023-04-25T00:07:40;99667.94;;;8.66;100.00
20145;BME280;10233;50.814;6.590;2023-04-25T00:08:43;99669.16;;;8.64;100.00
20145;BME280;10233;50.814;6.590;2023-04-25T00:09:44;99679.38;;;8.60;100.00
20145;BME280;10233;50.814;6.590;2023-04-25T00:10:45;99670.00;;;8.58;100.00
20145;BME280;10233;50.814;6.590;2023-04-25T00:11:45;99672.84;;;8.63;100.00
20145;BME280;10233;50.814;6.590;2023-04-25T00:12:46;99667.94;;;8.60;100.00
20145;BME280;10233;50.814;6.590;2023-04-25T00:13:48;99665.72;;;8.57;100.00
20145;BME280;10233;50.814;6.590;2023-04-25T00:14:49;99669.97;;;8.51;100.00
20145;BME280;10233;50.814;6.590;2023-04-25T00:15:50;99668.34;;;8.50;100.00
20145;BME280;10233;50.814;6.590;2023-04-25T00:16:51;99666.72;;;8.49;100.00
20145;BME280;10233;50.814;6.590;2023-04-25T00:17:52;99674.03;;;8.47;100.00
20145;BME280;10233;50.814;6.590;2023-04-25T00:18:53;99675.06;;;8.40;100.00
20145;BME280;10233;50.814;6.590;2023-04-25T00:19:54;99674.25;;;8.39;100.00
20145;BME280;10233;50.814;6.590;2023-04-25T00:20:55;99670.78;;;8.39;100.00
20145;BME280;10233;50.814;6.590;2023-04-25T00:21:55;99674.84;;;8.28;100.00
20145;BME280;10233;50.814;6.590;2023-04-25T00:22:56;99671.59;;;8.26;100.00
20145;BME280;10233;50.814;6.590;2023-04-25T00:23:57;99673.59;;;8.18;100.00
20145;BME280;10233;50.814;6.590;2023-04-25T00:24:57;99673.97;;;8.15;100.00
20145;BME280;10233;50.814;6.590;2023-04-25T00:26:00;99678.06;;;8.17;100.00
20145;BME280;10233;50.814;6.590;2023-04-25T00:27:01;99678.66;;;8.13;100.00
20145;BME280;10233;50.814;6.590;2023-04-25T00:28:01;99677.63;;;8.07;100.00
20145;BME280;10233;50.814;6.590;2023-04-25T00:29:02;99675.59;;;8.16;100.00
20145;BME280;10233;50.814;6.590;2023-04-25T00:30:03;99678.22;;;8.09;100.00
20145;BME280;10233;50.814;6.590;2023-04-25T00:31:04;99676.19;;;8.05;100.00
20145;BME280;10233;50.814;6.590;2023-04-25T00:32:04;99679.03;;;8.03;100.00
20145;BME280;10233;50.814;6.590;2023-04-25T00:33:05;99676.16;;;7.98;100.00
20145;BME280;10233;50.814;6.590;2023-04-25T00:34:06;99678.44;;;8.01;100.00
20145;BME280;10233;50.814;6.590;2023-04-25T00:35:10;99678.00;;;7.91;100.00
20145;BME280;10233;50.814;6.590;2023-04-25T00:36:10;99679.19;;;7.89;100.00
20145;BME280;10233;50.814;6.590;2023-04-25T00:37:11;99685.47;;;7.88;100.00
20145;BME280;10233;50.814;6.590;2023-04-25T00:38:12;99673.09;;;7.88;100.00
20145;BME280;10233;50.814;6.590;2023-04-25T00:39:13;99677.78;;;7.86;100.00
20145;BME280;10233;50.814;6.590;2023-04-25T00:40:14;99680.41;;;7.86;100.00
20145;BME280;10233;50.814;6.590;2023-04-25T00:41:15;99676.13;;;7.85;100.00
20145;BME280;10233;50.814;6.590;2023-04-25T00:42:15;99677.78;;;7.86;100.00
20145;BME280;10233;50.814;6.590;2023-04-25T00:43:16;99675.72;;;7.88;100.00
20145;BME280;10233;50.814;6.590;2023-04-25T00:44:17;99678.00;;;7.91;100.00
20145;BME280;10233;50.814;6.590;2023-04-25T00:45:17;99668.19;;;7.85;100.00
20145;BME280;10233;50.814;6.590;2023-04-25T00:46:18;99673.09;;;7.88;100.00
20145;BME280;10233;50.814;6.590;2023-04-25T00:47:19;99674.72;;;7.96;100.00
20145;BME280;10233;50.814;6.590;2023-04-25T00:48:22;99668.66;;;7.95;100.00
20145;BME280;10233;50.814;6.590;2023-04-25T00:49:23;99676.75;;;7.87;100.00
20145;BME280;10233;50.814;6.590;2023-04-25T00:50:24;99676.94;;;7.86;100.00
20145;BME280;10233;50.814;6.590;2023-04-25T00:51:26;99680.81;;;7.83;100.00
20145;BME280;10233;50.814;6.590;2023-04-25T00:52:28;99671.44;;;7.81;100.00
20145;BME280;10233;50.814;6.590;2023-04-25T00:53:30;99676.53;;;7.82;100.00
20145;BME280;10233;50.814;6.590;2023-04-25T00:54:32;99683.22;;;7.78;100.00
20145;BME280;10233;50.814;6.590;2023-04-25T00:55:33;99673.88;;;7.82;100.00
20145;BME280;10233;50.814;6.590;2023-04-25T00:56:36;99685.50;;;7.81;100.00
20145;BME280;10233;50.814;6.590;2023-04-25T00:57:37;99687.31;;;7.81;100.00
20145;BME280;10233;50.814;6.590;2023-04-25T00:58:38;99686.50;;;7.87;100.00
20145;BME280;10233;50.814;6.590;2023-04-25T00:59:44;99679.19;;;7.82;100.00
20145;BME280;10233;50.814;6.590;2023-04-25T01:00:47;99676.91;;;7.79;100.00
20145;BME280;10233;50.814;6.590;2023-04-25T01:01:48;99681.78;;;7.76;100.00
20145;BME280;10233;50.814;6.590;2023-04-25T01:02:49;99674.91;;;7.81;100.00
20145;BME280;10233;50.814;6.590;2023-04-25T01:03:50;99679.59;;;7.86;100.00
20145;BME280;10233;50.814;6.590;2023-04-25T01:04:53;99675.50;;;7.83;100.00
20145;BME280;10233;50.814;6.590;2023-04-25T01:05:54;99679.59;;;7.86;100.00
20145;BME280;10233;50.814;6.590;2023-04-25T01:06:54;99678.16;;;7.83;100.00
20145;BME280;10233;50.814;6.590;2023-04-25T01:07:56;99683.22;;;7.78;100.00
20145;BME280;10233;50.814;6.590;2023-04-25T01:08:57;99675.69;;;7.82;100.00
20145;BME280;10233;50.814;6.590;2023-04-25T01:09:58;99672.44;;;7.80;100.00
20145;BME280;10233;50.814;6.590;2023-04-25T01:10:58;99685.25;;;7.76;100.00
20145;BME280;10233;50.814;6.590;2023-04-25T01:11:59;99685.69;;;7.80;100.00
20145;BME280;10233;50.814;6.590;2023-04-25T01:13:01;99681.19;;;7.80;100.00
20145;BME280;10233;50.814;6.590;2023-04-25T01:14:02;99681.03;;;7.88;100.00
20145;BME280;10233;50.814;6.590;2023-04-25T01:15:03;99682.03;;;7.87;100.00
20145;BME280;10233;50.814;6.590;2023-04-25T01:16:04;99684.50;;;7.89;100.00
20145;BME280;10233;50.814;6.590;2023-04-25T01:17:06;99688.94;;;7.82;100.00
20145;BME280;10233;50.814;6.590;2023-04-25T01:18:08;99688.13;;;7.81;100.00
20145;BME280;10233;50.814;6.590;2023-04-25T01:19:10;99689.75;;;7.82;100.00
20145;BME280;10233;50.814;6.590;2023-04-25T01:20:14;99689.75;;;7.82;100.00
20145;BME280;10233;50.814;6.590;2023-04-25T01:21:14;99687.91;;;7.83;100.00
20145;BME280;10233;50.814;6.590;2023-04-25T01:22:15;99693.81;;;7.78;100.00
20145;BME280;10233;50.814;6.590;2023-04-25T01:23:18;99693.44;;;7.81;100.00
20145;BME280;10233;50.814;6.590;2023-04-25T01:24:20;99687.28;;;7.74;100.00
20145;BME280;10233;50.814;6.590;2023-04-25T01:25:22;99692.16;;;7.71;100.00
20145;BME280;10233;50.814;6.590;2023-04-25T01:26:23;99688.28;;;7.73;100.00
20145;BME280;10233;50.814;6.590;2023-04-25T01:27:25;99691.78;;;7.74;100.00
20145;BME280;10233;50.814;6.590;2023-04-25T01:28:26;99689.31;;;7.72;100.00
20145;BME280;10233;50.814;6.590;2023-04-25T01:29:28;99679.13;;;7.69;100.00
20145;BME280;10233;50.814;6.590;2023-04-25T01:30:29;99687.25;;;7.61;100.00
20145;BME280;10233;50.814;6.590;2023-04-25T01:31:31;99694.16;;;7.62;100.00
20145;BME280;10233;50.814;6.590;2023-04-25T01:32:33;99687.44;;;7.60;100.00
20145;BME280;10233;50.814;6.590;2023-04-25T01:33:38;99688.22;;;7.60;100.00
20145;BME280;10233;50.814;6.590;2023-04-25T01:34:39;99694.94;;;7.56;100.00
20145;BME280;10233;50.814;6.590;2023-04-25T01:35:40;99698.34;;;7.50;100.00
20145;BME280;10233;50.814;6.590;2023-04-25T01:36:40;99699.38;;;7.49;100.00
20145;BME280;10233;50.814;6.590;2023-04-25T01:37:42;99697.75;;;7.48;100.00
20145;BME280;10233;50.814;6.590;2023-04-25T01:38:45;99706.59;;;7.34;100.00
20145;BME280;10233;50.814;6.590;2023-04-25T01:39:47;99699.06;;;7.31;100.00
20145;BME280;10233;50.814;6.590;2023-04-25T01:40:49;99701.69;;;7.31;100.00
20145;BME280;10233;50.814;6.590;2023-04-25T01:41:53;99694.41;;;7.33;100.00
20145;BME280;10233;50.814;6.590;2023-04-25T01:42:54;99697.84;;;7.34;100.00
20145;BME280;10233;50.814;6.590;2023-04-25T01:43:55;99708.88;;;7.37;100.00
20145;BME280;10233;50.814;6.590;2023-04-25T01:44:56;99706.22;;;7.37;100.00
20145;BME280;10233;50.814;6.590;2023-04-25T01:45:56;99705.81;;;7.40;100.00
20145;BME280;10233;50.814;6.590;2023-04-25T01:46:57;99710.50;;;7.38;100.00
20145;BME280;10233;50.814;6.590;2023-04-25T01:48:00;99708.22;;;7.35;100.00
20145;BME280;10233;50.814;6.590;2023-04-25T01:49:01;99705.41;;;7.37;100.00
20145;BME280;10233;50.814;6.590;2023-04-25T01:50:03;99702.75;;;7.37;100.00
20145;BME280;10233;50.814;6.590;2023-04-25T01:51:06;99708.47;;;7.40;100.00
20145;BME280;10233;50.814;6.590;2023-04-25T01:52:06;99706.84;;;7.39;100.00
20145;BME280;10233;50.814;6.590;2023-04-25T01:53:09;99714.78;;;7.39;100.00
20145;BME280;10233;50.814;6.590;2023-04-25T01:54:10;99710.91;;;7.42;100.00
20145;BME280;10233;50.814;6.590;2023-04-25T01:55:12;99713.16;;;7.38;100.00
20145;BME280;10233;50.814;6.590;2023-04-25T01:56:19;99710.50;;;7.38;100.00
20145;BME280;10233;50.814;6.590;2023-04-25T01:57:20;99709.09;;;7.42;100.00
20145;BME280;10233;50.814;6.590;2023-04-25T01:58:21;99707.44;;;7.41;100.00
20145;BME280;10233;50.814;6.590;2023-04-25T01:59:37;99706.09;;;7.52;100.00
20145;BME280;10233;50.814;6.590;2023-04-25T02:00:57;99712.97;;;7.46;100.00
20145;BME280;10233;50.814;6.590;2023-04-25T02:02:00;99714.41;;;7.42;100.00
20145;BME280;10233;50.814;6.590;2023-04-25T02:03:06;99712.72;;;7.35;100.00
20145;BME280;10233;50.814;6.590;2023-04-25T02:04:08;99707.84;;;7.38;100.00
20145;BME280;10233;50.814;6.590;2023-04-25T02:05:12;99708.22;;;7.35;100.00
20145;BME280;10233;50.814;6.590;2023-04-25T02:06:14;99710.28;;;7.33;100.00
20145;BME280;10233;50.814;6.590;2023-04-25T02:07:18;99713.88;;;7.26;100.00
20145;BME280;10233;50.814;6.590;2023-04-25T02:08:23;99715.09;;;7.23;100.00
20145;BME280;10233;50.814;6.590;2023-04-25T02:09:26;99712.25;;;7.25;100.00
20145;BME280;10233;50.814;6.590;2023-04-25T02:10:29;99718.75;;;7.22;100.00
20145;BME280;10233;50.814;6.590;2023-04-25T02:11:57;99712.63;;;7.22;100.00
20145;BME280;10233;50.814;6.590;2023-04-25T02:12:58;99712.63;;;7.22;100.00
20145;BME280;10233;50.814;6.590;2023-04-25T02:14:21;99718.28;;;7.19;100.00
20145;BME280;10233;50.814;6.590;2023-04-25T02:15:33;99711.19;;;7.19;100.00
20145;BME280;10233;50.814;6.590;2023-04-25T02:16:44;99717.06;;;7.15;100.00
20145;BME280;10233;50.814;6.590;2023-04-25T02:17:49;99712.22;;;7.18;100.00
20145;BME280;10233;50.814;6.590;2023-04-25T02:18:50;99710.59;;;7.17;100.00
20145;BME280;10233;50.814;6.590;2023-04-25T02:19:53;99708.13;;;7.16;100.00
20145;BME280;10233;50.814;6.590;2023-04-25T02:20:54;99721.16;;;7.17;100.00
20145;BME280;10233;50.814;6.590;2023-04-25T02:21:54;99714.22;;;7.16;100.00
20145;BME280;10233;50.814;6.590;2023-04-25T02:22:55;99710.53;;;7.11;100.00
20145;BME280;10233;50.814;6.590;2023-04-25T02:23:56;99719.50;;;7.16;100.00
20145;BME280;10233;50.814;6.590;2023-04-25T02:24:57;99715.03;;;7.17;100.00
20145;BME280;10233;50.814;6.590;2023-04-25T02:25:58;99719.72;;;7.21;100.00
20145;BME280;10233;50.814;6.590;2023-04-25T02:26:58;99719.94;;;7.20;100.00
20145;BME280;10233;50.814;6.590;2023-04-25T02:27:59;99713.22;;;7.17;100.00
20145;BME280;10233;50.814;6.590;2023-04-25T02:29:00;99712.41;;;7.17;100.00
20145;BME280;10233;50.814;6.590;2023-04-25T02:30:01;99710.97;;;7.14;100.00
20145;BME280;10233;50.814;6.590;2023-04-25T02:31:02;99711.78;;;7.15;100.00
20145;BME280;10233;50.814;6.590;2023-04-25T02:32:04;99708.50;;;7.13;100.00
20145;BME280;10233;50.814;6.590;2023-04-25T02:33:05;99707.88;;;7.11;100.00
20145;BME280;10233;50.814;6.590;2023-04-25T02:34:06;99718.28;;;7.12;100.00
20145;BME280;10233;50.814;6.590;2023-04-25T02:35:09;99714.63;;;7.13;100.00
20145;BME280;10233;50.814;6.590;2023-04-25T02:36:10;99711.78;;;7.15;100.00
20145;BME280;10233;50.814;6.590;2023-04-25T02:37:11;99714.22;;;7.16;100.00
20145;BME280;10233;50.814;6.590;2023-04-25T02:38:11;99706.28;;;7.16;100.00
20145;BME280;10233;50.814;6.590;2023-04-25T02:39:14;99711.38;;;7.18;100.00
20145;BME280;10233;50.814;6.590;2023-04-25T02:40:14;99712.59;;;7.15;100.00
20145;BME280;10233;50.814;6.590;2023-04-25T02:41:15;99715.66;;;7.19;100.00
20145;BME280;10233;50.814;6.590;2023-04-25T02:42:16;99712.03;;;7.20;100.00
20145;BME280;10233;50.814;6.590;2023-04-25T02:43:16;99708.38;;;7.21;100.00
20145;BME280;10233;50.814;6.590;2023-04-25T02:44:17;99714.44;;;7.21;100.00
20145;BME280;10233;50.814;6.590;2023-04-25T02:45:19;99712.03;;;7.20;100.00
20145;BME280;10233;50.814;6.590;2023-04-25T02:46:20;99712.03;;;7.20;100.00
20145;BME280;10233;50.814;6.590;2023-04-25T02:47:21;99709.16;;;7.21;100.00
20145;BME280;10233;50.814;6.590;2023-04-25T02:48:23;99707.34;;;7.22;100.00
20145;BME280;10233;50.814;6.590;2023-04-25T02:49:24;99703.06;;;7.21;100.00
20145;BME280;10233;50.814;6.590;2023-04-25T02:50:26;99706.50;;;7.21;100.00
20145;BME280;10233;50.814;6.590;2023-04-25T02:51:27;99702.88;;;7.22;100.00
20145;BME280;10233;50.814;6.590;2023-04-25T02:52:27;99701.47;;;7.26;100.00
20145;BME280;10233;50.814;6.590;2023-04-25T02:53:36;99704.94;;;7.27;100.00
20145;BME280;10233;50.814;6.590;2023-04-25T02:54:37;99711.06;;;7.27;100.00
20145;BME280;10233;50.814;6.590;2023-04-25T02:55:38;99708.41;;;7.27;100.00
20145;BME280;10233;50.814;6.590;2023-04-25T02:56:39;99704.31;;;7.25;100.00
20145;BME280;10233;50.814;6.590;2023-04-25T02:57:45;99709.22;;;7.28;100.00
20145;BME280;10233;50.814;6.590;2023-04-25T02:58:53;99702.91;;;7.29;100.00
20145;BME280;10233;50.814;6.590;2023-04-25T02:59:54;99697.63;;;7.29;100.00
20145;BME280;10233;50.814;6.590;2023-04-25T03:00:54;99696.03;;;7.34;100.00
20145;BME280;10233;50.814;6.590;2023-04-25T03:01:55;99700.94;;;7.37;100.00
20145;BME280;10233;50.814;6.590;2023-04-25T03:02:56;99705.22;;;7.38;100.00
20145;BME280;10233;50.814;6.590;2023-04-25T03:03:57;99702.16;;;7.41;100.00
20145;BME280;10233;50.814;6.590;2023-04-25T03:04:58;99700.53;;;7.40;100.00
20145;BME280;10233;50.814;6.590;2023-04-25T03:06:01;99699.75;;;7.40;100.00
20145;BME280;10233;50.814;6.590;2023-04-25T03:07:06;99705.44;;;7.43;100.00
20145;BME280;10233;50.814;6.590;2023-04-25T03:08:06;99699.38;;;7.49;100.00
20145;BME280;10233;50.814;6.590;2023-04-25T03:09:08;99701.00;;;7.50;100.00
20145;BME280;10233;50.814;6.590;2023-04-25T03:10:09;99696.53;;;7.51;100.00
20145;BME280;10233;50.814;6.590;2023-04-25T03:11:10;99705.91;;;7.53;100.00
20145;BME280;10233;50.814;6.590;2023-04-25T03:12:11;99712.41;;;7.51;100.00
20145;BME280;10233;50.814;6.590;2023-04-25T03:13:11;99707.13;;;7.51;100.00
20145;BME280;10233;50.814;6.590;2023-04-25T03:14:13;99708.31;;;7.48;100.00
20145;BME280;10233;50.814;6.590;2023-04-25T03:15:13;99706.91;;;7.52;100.00
20145;BME280;10233;50.814;6.590;2023-04-25T03:16:16;99709.94;;;7.49;100.00
20145;BME280;10233;50.814;6.590;2023-04-25T03:17:16;99717.09;;;7.55;100.00
20145;BME280;10233;50.814;6.590;2023-04-25T03:18:17;99709.38;;;7.54;100.00
20145;BME280;10233;50.814;6.590;2023-04-25T03:19:17;99712.81;;;7.54;100.00
20145;BME280;10233;50.814;6.590;2023-04-25T03:20:18;99710.38;;;7.53;100.00
20145;BME280;10233;50.814;6.590;2023-04-25T03:21:19;99720.94;;;7.53;100.00
20145;BME280;10233;50.814;6.590;2023-04-25T03:22:20;99717.53;;;7.59;100.00
20145;BME280;10233;50.814;6.590;2023-04-25T03:23:20;99715.88;;;7.51;100.00
20145;BME280;10233;50.814;6.590;2023-04-25T03:24:21;99710.38;;;7.53;100.00
20145;BME280;10233;50.814;6.590;2023-04-25T03:25:22;99711.81;;;7.55;100.00
20145;BME280;10233;50.814;6.590;2023-04-25T03:26:23;99714.66;;;7.54;100.00
20145;BME280;10233;50.814;6.590;2023-04-25T03:27:23;99712.22;;;7.52;100.00
20145;BME280;10233;50.814;6.590;2023-04-25T03:28:25;99719.34;;;7.58;100.00
20145;BME280;10233;50.814;6.590;2023-04-25T03:29:26;99721.81;;;7.60;100.00
20145;BME280;10233;50.814;6.590;2023-04-25T03:30:29;99717.31;;;7.60;100.00
20145;BME280;10233;50.814;6.590;2023-04-25T03:31:30;99722.59;;;7.60;100.00
20145;BME280;10233;50.814;6.590;2023-04-25T03:32:31;99718.97;;;7.61;100.00
20145;BME280;10233;50.814;6.590;2023-04-25T03:33:31;99720.19;;;7.65;100.00
20145;BME280;10233;50.814;6.590;2023-04-25T03:34:32;99724.28;;;7.68;100.00
20145;BME280;10233;50.814;6.590;2023-04-25T03:35:33;99722.03;;;7.65;100.00
20145;BME280;10233;50.814;6.590;2023-04-25T03:36:33;99721.03;;;7.66;100.00
20145;BME280;10233;50.814;6.590;2023-04-25T03:37:34;99723.25;;;7.62;100.00
20145;BME280;10233;50.814;6.590;2023-04-25T03:38:35;99722.59;;;7.60;100.00
20145;BME280;10233;50.814;6.590;2023-04-25T03:39:37;99726.69;;;7.63;100.00
20145;BME280;10233;50.814;6.590;2023-04-25T03:40:38;99739.31;;;7.61;100.00
20145;BME280;10233;50.814;6.590;2023-04-25T03:41:43;99728.72;;;7.61;100.00
20145;BME280;10233;50.814;6.590;2023-04-25T03:42:47;99726.09;;;7.61;100.00
20145;BME280;10233;50.814;6.590;2023-04-25T03:43:48;99728.31;;;7.57;100.00
20145;BME280;10233;50.814;6.590;2023-04-25T03:44:51;99730.75;;;7.59;100.00
20145;BME280;10233;50.814;6.590;2023-04-25T03:45:53;99731.13;;;7.56;100.00
20145;BME280;10233;50.814;6.590;2023-04-25T03:46:55;99728.50;;;7.56;100.00
20145;BME280;10233;50.814;6.590;2023-04-25T03:47:57;99730.31;;;7.55;100.00
20145;BME280;10233;50.814;6.590;2023-04-25T03:48:58;99728.06;;;7.52;100.00
20145;BME280;10233;50.814;6.590;2023-04-25T03:50:13;99720.19;;;7.59;100.00
20145;BME280;10233;50.814;6.590;2023-04-25T03:51:14;99736.25;;;7.57;100.00
20145;BME280;10233;50.814;6.590;2023-04-25T03:52:18;99732.34;;;7.53;100.00
20145;BME280;10233;50.814;6.590;2023-04-25T03:53:19;99732.72;;;7.50;100.00
20145;BME280;10233;50.814;6.590;2023-04-25T03:54:38;99730.88;;;7.44;100.00
20145;BME280;10233;50.814;6.590;2023-04-25T03:55:45;99734.72;;;7.42;100.00
20145;BME280;10233;50.814;6.590;2023-04-25T03:56:45;99739.41;;;7.40;100.00
20145;BME280;10233;50.814;6.590;2023-04-25T03:57:52;99736.53;;;7.41;100.00
20145;BME280;10233;50.814;6.590;2023-04-25T03:58:53;99736.34;;;7.43;100.00
20145;BME280;10233;50.814;6.590;2023-04-25T03:59:56;99732.91;;;7.42;100.00
20145;BME280;10233;50.814;6.590;2023-04-25T04:00:58;99736.75;;;7.40;100.00
20145;BME280;10233;50.814;6.590;2023-04-25T04:01:59;99738.75;;;7.38;100.00
20145;BME280;10233;50.814;6.590;2023-04-25T04:03:00;99732.44;;;7.32;100.00
20145;BME280;10233;50.814;6.590;2023-04-25T04:04:00;99728.97;;;7.32;100.00
20145;BME280;10233;50.814;6.590;2023-04-25T04:05:02;99739.13;;;7.28;100.00
20145;BME280;10233;50.814;6.590;2023-04-25T04:06:05;99743.97;;;7.25;100.00
20145;BME280;10233;50.814;6.590;2023-04-25T04:07:10;99738.94;;;7.30;100.00
20145;BME280;10233;50.814;6.590;2023-04-25T04:08:14;99741.34;;;7.25;100.00
20145;BME280;10233;50.814;6.590;2023-04-25T04:09:16;99746.81;;;7.23;100.00
20145;BME280;10233;50.814;6.590;2023-04-25T04:10:18;99743.53;;;7.21;100.00
20145;BME280;10233;50.814;6.590;2023-04-25T04:11:19;99740.25;;;7.19;100.00
20145;BME280;10233;50.814;6.590;2023-04-25T04:12:19;99749.44;;;7.23;100.00
20145;BME280;10233;50.814;6.590;2023-04-25T04:13:20;99745.19;;;7.22;100.00
20145;BME280;10233;50.814;6.590;2023-04-25T04:14:20;99746.03;;;7.29;100.00
20145;BME280;10233;50.814;6.590;2023-04-25T04:15:23;99744.41;;;7.28;100.00
20145;BME280;10233;50.814;6.590;2023-04-25T04:16:23;99753.78;;;7.31;100.00
20145;BME280;10233;50.814;6.590;2023-04-25T04:17:24;99748.66;;;7.29;100.00
20145;BME280;10233;50.814;6.590;2023-04-25T04:18:26;99754.97;;;7.28;100.00
20145;BME280;10233;50.814;6.590;2023-04-25T04:19:27;99751.31;;;7.29;100.00
20145;BME280;10233;50.814;6.590;2023-04-25T04:20:42;99757.03;;;7.33;100.00
20145;BME280;10233;50.814;6.590;2023-04-25T04:21:43;99757.84;;;7.33;100.00
20145;BME280;10233;50.814;6.590;2023-04-25T04:22:44;99759.09;;;7.37;100.00
20145;BME280;10233;50.814;6.590;2023-04-25T04:23:48;99760.72;;;7.38;100.00
20145;BME280;10233;50.814;6.590;2023-04-25T04:24:49;99754.81;;;7.36;100.00
20145;BME280;10233;50.814;6.590;2023-04-25T04:25:55;99760.72;;;7.38;100.00
20145;BME280;10233;50.814;6.590;2023-04-25T04:27:13;99758.88;;;7.39;100.00
20145;BME280;10233;50.814;6.590;2023-04-25T04:28:40;99760.31;;;7.41;100.00
20145;BME280;10233;50.814;6.590;2023-04-25T04:29:59;99758.31;;;7.43;100.00
20145;BME280;10233;50.814;6.590;2023-04-25T04:31:06;99768.72;;;7.45;100.00
20145;BME280;10233;50.814;6.590;2023-04-25T04:32:07;99758.94;;;7.45;100.00
20145;BME280;10233;50.814;6.590;2023-04-25T04:33:09;99760.38;;;7.48;100.00
20145;BME280;10233;50.814;6.590;2023-04-25T04:34:11;99759.22;;;7.57;100.00
20145;BME280;10233;50.814;6.590;2023-04-25T04:35:13;99763.25;;;7.53;100.00
20145;BME280;10233;50.814;6.590;2023-04-25T04:36:14;99767.75;;;7.52;100.00
20145;BME280;10233;50.814;6.590;2023-04-25T04:37:16;99766.91;;;7.52;100.00
20145;BME280;10233;50.814;6.590;2023-04-25T04:38:18;99767.50;;;7.47;100.00
20145;BME280;10233;50.814;6.590;2023-04-25T04:39:20;99765.06;;;7.46;100.00
20145;BME280;10233;50.814;6.590;2023-04-25T04:40:41;99769.38;;;7.53;100.00
20145;BME280;10233;50.814;6.590;2023-04-25T04:41:58;99771.63;;;7.56;100.00
20145;BME280;10233;50.814;6.590;2023-04-25T04:43:19;99773.50;;;7.62;100.00
20145;BME280;10233;50.814;6.590;2023-04-25T04:44:25;99772.44;;;7.57;100.00
20145;BME280;10233;50.814;6.590;2023-04-25T04:45:45;99771.47;;;7.64;100.00
20145;BME280;10233;50.814;6.590;2023-04-25T04:47:04;99778.84;;;7.69;100.00
20145;BME280;10233;50.814;6.590;2023-04-25T04:48:26;99776.78;;;7.71;100.00
20145;BME280;10233;50.814;6.590;2023-04-25T04:49:35;99778.22;;;7.73;100.00
20145;BME280;10233;50.814;6.590;2023-04-25T04:50:58;99784.34;;;7.74;100.00
20145;BME280;10233;50.814;6.590;2023-04-25T04:52:17;99782.03;;;7.64;100.00
20145;BME280;10233;50.814;6.590;2023-04-25T04:53:23;99779.81;;;7.61;100.00
20145;BME280;10233;50.814;6.590;2023-04-25T04:54:46;99787.75;;;7.68;100.00
20145;BME280;10233;50.814;6.590;2023-04-25T04:55:51;99783.66;;;7.65;100.00
20145;BME280;10233;50.814;6.590;2023-04-25T04:57:10;99788.16;;;7.65;100.00
20145;BME280;10233;50.814;6.590;2023-04-25T04:58:23;99786.53;;;7.64;100.00
20145;BME280;10233;50.814;6.590;2023-04-25T04:59:38;99792.63;;;7.64;100.00
20145;BME280;10233;50.814;6.590;2023-04-25T05:00:43;99789.66;;;7.74;100.00
20145;BME280;10233;50.814;6.590;2023-04-25T05:02:06;99789.00;;;7.72;100.00
20145;BME280;10233;50.814;6.590;2023-04-25T05:03:26;99798.34;;;7.68;100.00
20145;BME280;10233;50.814;6.590;2023-04-25T05:04:45;99793.97;;;7.81;100.00
20145;BME280;10233;50.814;6.590;2023-04-25T05:06:05;99794.38;;;7.85;100.00
20145;BME280;10233;50.814;6.590;2023-04-25T05:07:21;99796.22;;;7.91;100.00
20145;BME280;10233;50.814;6.590;2023-04-25T05:08:34;99799.31;;;7.94;100.00
20145;BME280;10233;50.814;6.590;2023-04-25T05:09:52;99803.03;;;8.06;100.00
20145;BME280;10233;50.814;6.590;2023-04-25T05:10:56;99805.47;;;8.01;100.00
20145;BME280;10233;50.814;6.590;2023-04-25T05:12:22;99794.28;;;8.06;100.00
20145;BME280;10233;50.814;6.590;2023-04-25T05:13:42;99796.34;;;8.10;100.00
20145;BME280;10233;50.814;6.590;2023-04-25T05:15:05;99801.41;;;8.12;100.00
20145;BME280;10233;50.814;6.590;2023-04-25T05:16:32;99804.75;;;8.20;100.00
20145;BME280;10233;50.814;6.590;2023-04-25T05:18:05;99809.16;;;8.13;100.00
20145;BME280;10233;50.814;6.590;2023-04-25T05:19:15;99805.91;;;8.11;100.00
20145;BME280;10233;50.814;6.590;2023-04-25T05:20:36;99811.00;;;8.13;100.00
20145;BME280;10233;50.814;6.590;2023-04-25T05:21:55;99813.88;;;8.18;100.00
20145;BME280;10233;50.814;6.590;2023-04-25T05:23:14;99815.16;;;8.28;100.00
20145;BME280;10233;50.814;6.590;2023-04-25T05:24:17;99820.91;;;8.38;100.00
20145;BME280;10233;50.814;6.590;2023-04-25T05:25:36;99817.22;;;8.26;100.00
20145;BME280;10233;50.814;6.590;2023-04-25T05:26:55;99819.47;;;8.29;100.00
20145;BME280;10233;50.814;6.590;2023-04-25T05:28:14;99820.47;;;8.28;100.00
20145;BME280;10233;50.814;6.590;2023-04-25T05:29:33;99825.94;;;8.27;100.00
20145;BME280;10233;50.814;6.590;2023-04-25T05:30:40;99822.94;;;8.36;100.00
20145;BME280;10233;50.814;6.590;2023-04-25T05:31:45;99828.84;;;8.38;100.00
20145;BME280;10233;50.814;6.590;2023-04-25T05:32:48;99823.75;;;8.30;100.00
20145;BME280;10233;50.814;6.590;2023-04-25T05:33:49;99822.34;;;8.41;100.00
20145;BME280;10233;50.814;6.590;2023-04-25T05:34:50;99828.84;;;8.38;100.00
20145;BME280;10233;50.814;6.590;2023-04-25T05:36:05;99830.72;;;8.44;100.00
20145;BME280;10233;50.814;6.590;2023-04-25T05:37:06;99837.44;;;8.40;100.00
20145;BME280;10233;50.814;6.590;2023-04-25T05:38:12;99832.56;;;8.50;100.00
20145;BME280;10233;50.814;6.590;2023-04-25T05:39:33;99833.00;;;8.60;100.00
20145;BME280;10233;50.814;6.590;2023-04-25T05:41:00;99840.75;;;8.55;100.00